Pealertown, Pennsylvania
Current Conditions -  °F | °C
As of 4:55 PM on Wednesday 28 Jan 2015 (Local Time) from KHZL Reporting Station
Clear Clear  
Wind Chill: 19°   Ceiling: Unl
Heat Index: 28°   Visibility: 10mi
Dew Point:   Wind: 10mph
Humidity: 31%   Direction: 320°NW
Pressure: 30.15"   Gusts: 17mph
Location:  41.1114°N, 76.3684°W
Report Text: KHZL 282155Z AUTO 32009G15KT 10SM CLR M02/M17 A3015 RMK AO2
Loading
Personal Weather Stations






























Interactive Weather Map New forecast layout! Learn more

10-Day Weather Forecast

Advertisements
Track Severe Weather on mobile